createdAt,value
2022-09-05T00:01:31.989Z,23.82
2022-09-05T00:03:43.061Z,23.81
2022-09-05T00:06:08.748Z,23.84
2022-09-05T00:08:17.752Z,23.79
2022-09-05T00:10:27.451Z,23.78
2022-09-05T00:12:39.860Z,23.75
2022-09-05T00:15:15.956Z,23.75
2022-09-05T00:17:58.874Z,23.71
2022-09-05T00:24:30.375Z,23.60
2022-09-05T00:24:37.606Z,23.62
2022-09-05T00:25:31.741Z,23.51
2022-09-05T00:27:46.252Z,23.44
2022-09-05T00:31:07.421Z,23.44
2022-09-05T00:32:55.703Z,23.40
2022-09-05T00:35:10.304Z,23.37
2022-09-05T00:37:12.409Z,23.33
2022-09-05T00:39:21.142Z,23.33
2022-09-05T00:41:23.542Z,23.42
2022-09-05T00:43:28.887Z,23.40
2022-09-05T00:45:35.093Z,23.46
2022-09-05T00:47:48.286Z,23.50
2022-09-05T00:49:54.550Z,23.50
2022-09-05T00:52:01.737Z,23.52
2022-09-05T00:54:18.494Z,23.52
2022-09-05T00:56:46.821Z,23.49
2022-09-05T00:59:02.101Z,23.40
2022-09-05T01:01:25.312Z,23.40
2022-09-05T01:03:51.178Z,23.40
2022-09-05T01:06:15.211Z,23.39
2022-09-05T01:08:30.802Z,23.33
2022-09-05T01:10:41.661Z,23.24
2022-09-05T01:12:57.380Z,23.27
2022-09-05T01:15:11.852Z,23.29
2022-09-05T01:17:32.449Z,23.26
2022-09-05T01:19:50.733Z,23.26
2022-09-05T01:22:24.933Z,23.24
2022-09-05T01:24:41.655Z,23.23
2022-09-05T01:27:21.348Z,23.24
2022-09-05T01:29:38.046Z,23.09
2022-09-05T01:31:50.819Z,23.07
2022-09-05T01:34:03.267Z,23.05
2022-09-05T01:36:17.065Z,23.01
2022-09-05T01:38:25.839Z,23.03
2022-09-05T01:40:36.080Z,23.10
2022-09-05T01:42:45.628Z,23.05
2022-09-05T01:44:56.984Z,23.00
2022-09-05T01:47:15.959Z,22.96
2022-09-05T01:49:50.590Z,23.04
2022-09-05T01:52:22.182Z,22.99
2022-09-05T01:54:36.141Z,22.99
2022-09-05T01:56:49.579Z,22.99
2022-09-05T01:59:09.907Z,22.98
2022-09-05T02:01:25.480Z,22.94
2022-09-05T02:03:39.899Z,22.87
2022-09-05T02:06:11.143Z,22.84
2022-09-05T02:08:39.218Z,22.83
2022-09-05T02:11:00.086Z,22.80
2022-09-05T02:13:11.592Z,22.83
2022-09-05T02:15:18.591Z,22.85
2022-09-05T02:17:51.153Z,22.79
2022-09-05T02:19:59.790Z,22.73
2022-09-05T02:22:10.043Z,22.69
2022-09-05T02:24:17.717Z,22.68
2022-09-05T02:26:24.425Z,22.58
2022-09-05T02:28:33.858Z,22.53
2022-09-05T02:30:48.508Z,22.55
2022-09-05T02:33:12.899Z,22.56
2022-09-05T02:35:22.271Z,22.56
2022-09-05T02:39:07.597Z,22.55
2022-09-05T02:45:09.015Z,22.53
2022-09-05T02:45:21.699Z,22.40
2022-09-05T02:45:24.341Z,22.43
2022-09-05T02:47:29.048Z,22.33
2022-09-05T02:52:46.191Z,22.29
2022-09-05T02:57:28.840Z,22.34
2022-09-05T02:57:36.180Z,22.35
2022-09-05T02:57:37.803Z,22.41
2022-09-05T02:59:55.842Z,22.34
2022-09-05T03:02:26.493Z,22.33
2022-09-05T03:04:37.614Z,22.37
2022-09-05T03:06:50.191Z,22.38
2022-09-05T03:09:17.048Z,22.34
2022-09-05T03:11:56.073Z,22.42
2022-09-05T03:14:34.994Z,22.46
2022-09-05T03:17:13.808Z,22.53
2022-09-05T03:19:46.998Z,22.49
2022-09-05T03:22:22.698Z,22.41
2022-09-05T03:25:02.808Z,22.44
2022-09-05T03:27:35.873Z,22.32
2022-09-05T03:30:01.685Z,22.34
2022-09-05T03:32:29.234Z,22.36
2022-09-05T03:35:08.412Z,22.29
2022-09-05T03:37:50.892Z,22.26
2022-09-05T03:40:20.034Z,22.22
2022-09-05T03:42:55.833Z,22.13
2022-09-05T03:45:36.535Z,22.07
2022-09-05T03:48:27.969Z,22.04
2022-09-05T03:53:55.054Z,22.13
2022-09-05T03:57:13.049Z,22.07
2022-09-05T03:57:19.759Z,22.13
2022-09-05T03:59:01.421Z,22.00
2022-09-05T04:01:17.524Z,22.02
2022-09-05T04:08:24.900Z,22.07
2022-09-05T04:08:31.745Z,22.06
2022-09-05T04:08:41.806Z,22.04
2022-09-05T04:10:53.827Z,22.00
2022-09-05T04:13:01.418Z,22.00
2022-09-05T04:15:07.515Z,21.97
2022-09-05T04:17:19.949Z,21.87
2022-09-05T04:19:28.619Z,21.80
2022-09-05T04:21:34.904Z,21.72
2022-09-05T04:23:48.099Z,21.72
2022-09-05T04:26:11.278Z,21.81
2022-09-05T04:28:22.226Z,21.77
2022-09-05T04:30:38.188Z,21.76
2022-09-05T04:32:54.888Z,21.64
2022-09-05T04:35:14.659Z,21.63
2022-09-05T04:37:47.861Z,21.56
2022-09-05T04:39:51.327Z,21.55
2022-09-05T04:41:56.046Z,21.49
2022-09-05T04:44:01.672Z,21.50
2022-09-05T04:46:15.710Z,21.53
2022-09-05T04:48:26.928Z,21.59
2022-09-05T04:50:37.793Z,21.52
2022-09-05T04:53:04.732Z,21.47
2022-09-05T04:55:10.445Z,21.42
2022-09-05T04:57:21.598Z,21.40
2022-09-05T05:03:22.082Z,21.40
2022-09-05T05:06:00.371Z,21.34
2022-09-05T05:06:09.583Z,21.31
2022-09-05T05:06:48.416Z,21.33
2022-09-05T05:08:58.391Z,21.35
2022-09-05T05:17:56.571Z,21.44
2022-09-05T05:18:01.320Z,21.47
2022-09-05T05:18:12.955Z,21.50
2022-09-05T05:18:36.684Z,21.53
2022-09-05T05:20:52.849Z,21.54
2022-09-05T05:23:07.433Z,21.63
2022-09-05T05:25:12.012Z,21.72
2022-09-05T05:27:23.616Z,21.74
2022-09-05T05:29:32.576Z,21.72
2022-09-05T05:31:46.427Z,21.75
2022-09-05T05:33:50.984Z,21.66
2022-09-05T05:35:56.112Z,21.55
2022-09-05T05:38:05.112Z,21.58
2022-09-05T05:40:10.904Z,21.62
2022-09-05T05:42:20.601Z,21.64
2022-09-05T05:44:27.513Z,21.64
2022-09-05T05:46:36.681Z,21.66
2022-09-05T05:48:40.638Z,21.74
2022-09-05T05:50:57.621Z,21.77
2022-09-05T05:53:40.948Z,21.74
2022-09-05T05:55:58.059Z,21.63
2022-09-05T05:58:14.691Z,21.58
2022-09-05T06:00:27.385Z,21.68
2022-09-05T06:03:12.017Z,21.79
2022-09-05T06:05:41.285Z,21.85
2022-09-05T06:13:53.000Z,21.85
2022-09-05T06:14:49.614Z,21.96
2022-09-05T06:15:01.919Z,21.98
2022-09-05T06:16:29.904Z,22.00
2022-09-05T06:19:00.707Z,22.03
2022-09-05T06:22:08.299Z,22.00
2022-09-05T06:24:26.462Z,22.06
2022-09-05T06:27:00.962Z,22.10
2022-09-05T06:29:16.213Z,22.15
2022-09-05T06:31:34.110Z,22.21
2022-09-05T06:33:52.724Z,22.18
2022-09-05T06:36:08.989Z,22.18
2022-09-05T06:38:26.027Z,22.28
2022-09-05T06:40:35.859Z,22.35
2022-09-05T06:42:56.951Z,22.37
2022-09-05T06:45:27.897Z,22.41
2022-09-05T06:47:34.705Z,22.49
2022-09-05T06:49:53.018Z,22.48
2022-09-05T06:52:30.194Z,22.55
2022-09-05T06:55:07.651Z,22.64
2022-09-05T06:57:31.972Z,22.73
2022-09-05T07:00:04.581Z,22.84
2022-09-05T07:02:23.795Z,22.90
2022-09-05T07:05:37.615Z,22.92
2022-09-05T07:07:16.973Z,22.99
2022-09-05T07:09:28.577Z,23.02
2022-09-05T07:11:38.829Z,23.00
2022-09-05T07:13:45.903Z,23.01
2022-09-05T07:15:56.044Z,23.08
2022-09-05T07:18:10.665Z,23.18
2022-09-05T07:20:22.492Z,23.31
2022-09-05T07:22:48.590Z,23.36
2022-09-05T07:24:54.689Z,23.53
2022-09-05T07:26:59.377Z,23.70
2022-09-05T07:29:03.952Z,23.81
2022-09-05T07:31:14.149Z,23.97
2022-09-05T07:33:30.234Z,24.14
2022-09-05T07:35:39.776Z,24.28
2022-09-05T07:37:45.660Z,24.44
2022-09-05T07:39:53.886Z,24.56
2022-09-05T07:41:58.194Z,24.60
2022-09-05T07:44:04.672Z,24.74
2022-09-05T07:46:10.716Z,24.84
2022-09-05T07:48:20.670Z,24.91
2022-09-05T07:52:21.095Z,24.91
2022-09-05T07:56:47.764Z,24.95
2022-09-05T07:57:00.912Z,24.93
2022-09-05T07:57:50.841Z,24.79
2022-09-05T07:59:56.639Z,24.94
2022-09-05T08:02:02.302Z,25.07
2022-09-05T08:04:05.586Z,25.11
2022-09-05T08:06:13.397Z,25.15
2022-09-05T08:08:40.081Z,25.26
2022-09-05T08:11:23.855Z,25.18
2022-09-05T08:13:24.193Z,25.11
2022-09-05T08:15:41.008Z,25.04
2022-09-05T08:18:05.676Z,25.00
2022-09-05T08:20:20.627Z,25.21
2022-09-05T08:22:26.384Z,25.29
2022-09-05T08:24:36.767Z,25.33
2022-09-05T08:26:46.887Z,25.35
2022-09-05T08:28:56.160Z,25.33
2022-09-05T08:31:03.935Z,25.33
2022-09-05T08:33:12.866Z,25.33
2022-09-05T08:35:20.808Z,25.34
2022-09-05T08:37:25.494Z,25.34
2022-09-05T08:39:31.570Z,25.35
2022-09-05T08:41:50.445Z,25.29
2022-09-05T08:46:42.699Z,25.26
2022-09-05T08:46:46.892Z,25.22
2022-09-05T08:49:32.216Z,25.18
2022-09-05T08:51:53.996Z,25.21
2022-09-05T08:54:12.350Z,25.21
2022-09-05T08:56:21.090Z,25.31
2022-09-05T08:58:49.470Z,25.41
2022-09-05T09:01:06.649Z,25.50
2022-09-05T09:03:22.490Z,25.59
2022-09-05T09:06:14.506Z,25.67
2022-09-05T09:08:15.730Z,25.78
2022-09-05T09:10:31.394Z,25.77
2022-09-05T09:12:59.963Z,25.83
2022-09-05T09:15:03.243Z,25.88
2022-09-05T09:17:16.478Z,25.97
2022-09-05T09:19:28.985Z,26.06
2022-09-05T09:21:39.935Z,26.07
2022-09-05T09:23:50.009Z,26.09
2022-09-05T09:26:03.694Z,26.02
2022-09-05T09:28:48.102Z,25.99
2022-09-05T09:30:58.155Z,26.08
2022-09-05T09:33:05.530Z,26.07
2022-09-05T09:35:16.645Z,26.10
2022-09-05T09:38:02.562Z,26.14
2022-09-05T09:40:37.816Z,26.15
2022-09-05T09:42:50.020Z,26.14
2022-09-05T09:45:28.207Z,26.13
2022-09-05T09:47:50.470Z,26.17
2022-09-05T09:50:19.490Z,26.23
2022-09-05T09:52:57.058Z,26.25
2022-09-05T09:55:31.750Z,26.28
2022-09-05T09:57:58.972Z,26.33
2022-09-05T10:00:09.819Z,26.33
2022-09-05T10:04:31.043Z,26.30
2022-09-05T10:10:49.222Z,26.40
2022-09-05T10:10:52.194Z,26.32
2022-09-05T10:11:37.743Z,26.44
2022-09-05T10:13:25.613Z,26.52
2022-09-05T10:15:34.644Z,26.56
2022-09-05T10:18:00.111Z,26.63
2022-09-05T10:20:29.572Z,26.73
2022-09-05T10:22:59.037Z,26.82
2022-09-05T10:25:22.724Z,26.91
2022-09-05T10:27:45.682Z,26.99
2022-09-05T10:30:08.648Z,27.10
2022-09-05T10:35:11.305Z,27.13
2022-09-05T10:35:13.602Z,27.21
2022-09-05T10:37:12.864Z,27.29
2022-09-05T10:39:18.045Z,27.28
2022-09-05T10:41:29.517Z,27.36
2022-09-05T10:43:33.760Z,27.39
2022-09-05T10:45:53.083Z,27.45
2022-09-05T10:48:12.809Z,27.51
2022-09-05T10:50:27.508Z,27.55
2022-09-05T10:52:35.525Z,27.61
2022-09-05T10:54:47.298Z,27.69
2022-09-05T10:57:02.790Z,27.76
2022-09-05T11:01:54.303Z,27.83
2022-09-05T11:02:20.472Z,27.93
2022-09-05T11:04:11.463Z,28.01
2022-09-05T11:06:20.873Z,28.07
2022-09-05T11:08:36.844Z,28.26
2022-09-05T11:10:47.087Z,28.43
2022-09-05T11:13:21.192Z,28.47
2022-09-05T11:15:31.137Z,28.47
2022-09-05T11:17:40.678Z,28.48
2022-09-05T11:19:50.076Z,28.52
2022-09-05T11:22:05.289Z,28.54
2022-09-05T11:24:33.532Z,28.56
2022-09-05T11:26:43.542Z,28.61
2022-09-05T11:29:00.076Z,28.64
2022-09-05T11:31:08.948Z,28.68
2022-09-05T11:38:01.274Z,28.76
2022-09-05T11:39:46.973Z,28.82
2022-09-05T11:39:53.717Z,28.96
2022-09-05T11:41:54.452Z,29.11
2022-09-05T11:44:26.973Z,29.29
2022-09-05T11:46:34.787Z,29.34
2022-09-05T11:49:07.188Z,29.51
2022-09-05T11:51:51.315Z,29.77
2022-09-05T11:54:37.755Z,29.85
2022-09-05T11:57:06.450Z,29.89
2022-09-05T11:59:44.885Z,29.98
2022-09-05T12:02:16.860Z,30.09
2022-09-05T12:04:36.828Z,30.16
2022-09-05T12:07:32.015Z,30.41
2022-09-05T12:09:47.776Z,30.70
2022-09-05T12:12:32.761Z,31.33
2022-09-05T12:14:42.409Z,31.94
2022-09-05T12:16:56.533Z,32.63
2022-09-05T12:19:19.093Z,33.25
2022-09-05T12:21:38.244Z,33.19
2022-09-05T12:25:15.120Z,33.61
2022-09-05T12:27:38.930Z,34.29
2022-09-05T12:32:49.558Z,34.04
2022-09-05T12:36:07.008Z,34.19
2022-09-05T12:40:33.951Z,34.01
2022-09-05T12:40:46.276Z,33.57
2022-09-05T12:41:42.900Z,33.24
2022-09-05T12:42:10.742Z,34.65
2022-09-05T12:44:38.793Z,32.88
2022-09-05T12:46:00.927Z,32.43
2022-09-05T12:48:12.299Z,32.49
2022-09-05T12:50:16.729Z,32.41
2022-09-05T12:52:26.957Z,32.28
2022-09-05T12:54:34.679Z,32.13
2022-09-05T12:59:43.404Z,31.91
2022-09-05T13:02:57.934Z,31.76
2022-09-05T13:03:06.704Z,31.55
2022-09-05T13:04:18.653Z,31.48
2022-09-05T13:06:26.582Z,31.33
2022-09-05T13:08:40.964Z,31.31
2022-09-05T13:14:49.894Z,31.33
2022-09-05T13:15:02.800Z,31.31
2022-09-05T13:15:35.308Z,31.24
2022-09-05T13:17:44.296Z,31.20
2022-09-05T13:19:50.768Z,31.17
2022-09-05T13:21:54.573Z,31.13
2022-09-05T13:24:07.106Z,31.07
2022-09-05T13:26:12.342Z,31.01
2022-09-05T13:28:15.206Z,30.99
2022-09-05T13:32:58.825Z,30.95
2022-09-05T13:37:58.160Z,30.91
2022-09-05T13:38:05.154Z,30.90
2022-09-05T13:38:07.302Z,30.91
2022-09-05T13:40:03.497Z,30.82
2022-09-05T13:42:06.360Z,30.78
2022-09-05T13:44:25.275Z,30.75
2022-09-05T13:46:37.848Z,30.73
2022-09-05T13:51:25.818Z,30.78
2022-09-05T13:53:37.099Z,30.80
2022-09-05T13:55:43.247Z,30.84
2022-09-05T13:57:48.584Z,30.84
2022-09-05T14:00:34.653Z,30.88
2022-09-05T14:05:30.501Z,30.95
2022-09-05T14:08:10.589Z,30.95
2022-09-05T14:10:35.329Z,30.96
2022-09-05T14:12:42.243Z,31.42
2022-09-05T14:15:10.104Z,31.57
2022-09-05T14:19:55.071Z,31.39
2022-09-05T14:22:02.252Z,31.31
2022-09-05T14:24:11.471Z,32.40
2022-09-05T14:26:21.919Z,32.50
2022-09-05T14:28:27.690Z,32.46
2022-09-05T14:31:42.725Z,32.46
2022-09-05T14:37:35.753Z,32.41
2022-09-05T14:37:48.157Z,32.24
2022-09-05T14:38:18.375Z,32.05
2022-09-05T14:40:59.255Z,32.04
2022-09-05T14:43:31.359Z,31.94
2022-09-05T14:46:00.349Z,31.86
2022-09-05T14:48:20.607Z,31.75
2022-09-05T14:50:37.440Z,31.68
2022-09-05T14:52:43.968Z,31.53
2022-09-05T15:02:41.428Z,31.44
2022-09-05T15:02:42.987Z,31.24
2022-09-05T15:02:44.858Z,31.34
2022-09-05T15:04:45.543Z,31.14
2022-09-05T15:07:00.194Z,31.07
2022-09-05T15:12:14.195Z,31.02
2022-09-05T15:12:23.842Z,30.99
2022-09-05T15:13:58.306Z,30.97
2022-09-05T15:16:07.586Z,30.93
2022-09-05T15:18:13.789Z,30.86
2022-09-05T15:20:28.754Z,30.80
2022-09-05T15:22:32.662Z,30.70
2022-09-05T15:24:37.220Z,30.65
2022-09-05T15:26:47.626Z,30.62
2022-09-05T15:28:50.699Z,30.58
2022-09-05T15:31:22.533Z,30.60
2022-09-05T15:33:26.429Z,30.61
2022-09-05T15:35:35.431Z,30.60
2022-09-05T15:37:39.083Z,30.51
2022-09-05T15:39:40.665Z,30.50
2022-09-05T15:41:43.187Z,30.42
2022-09-05T15:43:57.516Z,30.42
2022-09-05T15:46:03.495Z,30.38
2022-09-05T15:48:19.177Z,30.27
2022-09-05T15:50:22.314Z,30.19
2022-09-05T15:52:38.978Z,30.24
2022-09-05T15:54:52.633Z,30.26
2022-09-05T15:56:58.774Z,30.25
2022-09-05T15:59:02.014Z,30.23
2022-09-05T16:01:12.351Z,30.28
2022-09-05T16:03:48.355Z,30.30
2022-09-05T16:10:36.345Z,30.32
2022-09-05T16:10:50.787Z,30.30
2022-09-05T16:13:11.602Z,30.32
2022-09-05T16:19:13.715Z,30.31
2022-09-05T16:23:13.115Z,30.30
2022-09-05T16:23:31.775Z,30.31
2022-09-05T16:23:32.677Z,30.31
2022-09-05T16:25:03.855Z,30.29
2022-09-05T16:27:06.787Z,30.27
2022-09-05T16:29:21.253Z,30.30
2022-09-05T16:31:41.750Z,30.26
2022-09-05T16:33:43.746Z,30.20
2022-09-05T16:35:51.879Z,30.12
2022-09-05T16:38:01.002Z,30.15
2022-09-05T16:40:12.024Z,30.17
2022-09-05T16:42:20.127Z,30.15
2022-09-05T16:44:33.702Z,30.12
2022-09-05T16:46:42.094Z,30.12
2022-09-05T16:48:54.826Z,30.06
2022-09-05T16:51:15.267Z,30.08
2022-09-05T16:53:30.867Z,30.07
2022-09-05T16:55:37.766Z,30.06
2022-09-05T16:57:43.775Z,30.10
2022-09-05T16:59:46.591Z,30.05
2022-09-05T17:02:07.229Z,30.07
2022-09-05T17:04:18.507Z,30.01
2022-09-05T17:06:26.664Z,29.98
2022-09-05T17:08:29.276Z,29.92
2022-09-05T17:10:40.771Z,29.94
2022-09-05T17:12:42.776Z,29.94
2022-09-05T17:14:47.835Z,29.94
2022-09-05T17:16:52.495Z,29.93
2022-09-05T17:18:57.721Z,29.90
2022-09-05T17:21:02.747Z,29.89
2022-09-05T17:29:18.076Z,29.89
2022-09-05T17:29:30.257Z,29.88
2022-09-05T17:29:36.092Z,29.86
2022-09-05T17:31:46.912Z,29.85
2022-09-05T17:33:22.937Z,29.84
2022-09-05T17:36:01.215Z,29.83
2022-09-05T17:38:29.554Z,29.81
2022-09-05T17:40:51.546Z,29.73
2022-09-05T17:42:58.325Z,29.74
2022-09-05T17:45:11.690Z,29.71
2022-09-05T17:47:22.014Z,29.71
2022-09-05T17:49:40.827Z,29.68
2022-09-05T17:52:28.051Z,29.66
2022-09-05T17:54:32.386Z,29.60
2022-09-05T17:56:36.481Z,29.53
2022-09-05T17:58:49.166Z,29.51
2022-09-05T18:01:05.356Z,29.45
2022-09-05T18:03:07.345Z,29.38
2022-09-05T18:05:56.355Z,29.37
2022-09-05T18:07:58.000Z,29.32
2022-09-05T18:13:12.758Z,29.19
2022-09-05T18:15:04.638Z,29.15
2022-09-05T18:17:56.932Z,29.12
2022-09-05T18:20:07.938Z,29.07
2022-09-05T18:22:21.181Z,29.06
2022-09-05T18:24:37.204Z,29.03
2022-09-05T18:26:44.846Z,29.03
2022-09-05T18:29:14.382Z,29.02
2022-09-05T18:31:54.113Z,28.98
2022-09-05T18:34:31.776Z,28.94
2022-09-05T18:36:34.638Z,28.86
2022-09-05T18:38:51.188Z,28.85
2022-09-05T18:41:13.169Z,28.81
2022-09-05T18:43:26.590Z,28.73
2022-09-05T18:45:33.832Z,28.66
2022-09-05T18:47:52.698Z,28.62
2022-09-05T18:50:26.266Z,28.59
2022-09-05T18:52:25.934Z,28.55
2022-09-05T18:54:33.462Z,28.54
2022-09-05T18:57:09.722Z,28.52
2022-09-05T18:59:15.777Z,28.50
2022-09-05T19:01:28.532Z,28.45
2022-09-05T19:03:33.597Z,28.43
2022-09-05T19:05:44.808Z,28.43
2022-09-05T19:07:50.267Z,28.41
2022-09-05T19:10:35.610Z,28.40
2022-09-05T19:12:32.889Z,28.36
2022-09-05T19:14:55.802Z,28.38
2022-09-05T19:17:04.159Z,28.27
2022-09-05T19:19:16.023Z,28.21
2022-09-05T19:21:22.308Z,28.17
2022-09-05T19:23:41.294Z,28.11
2022-09-05T19:25:45.574Z,28.07
2022-09-05T19:32:06.167Z,28.07
2022-09-05T19:36:50.527Z,28.01
2022-09-05T19:36:52.111Z,28.05
2022-09-05T19:37:02.640Z,27.98
2022-09-05T19:37:40.988Z,27.94
2022-09-05T19:43:46.345Z,27.94
2022-09-05T19:47:25.719Z,27.89
2022-09-05T19:47:36.396Z,27.78
2022-09-05T19:47:37.379Z,27.73
2022-09-05T19:49:24.977Z,27.67
2022-09-05T19:51:27.142Z,27.62
2022-09-05T19:53:28.898Z,27.58
2022-09-05T19:55:35.313Z,27.54
2022-09-05T19:57:37.274Z,27.58
2022-09-05T19:59:41.399Z,27.61
2022-09-05T20:01:44.327Z,27.60
2022-09-05T20:03:50.419Z,27.62
2022-09-05T20:05:52.241Z,27.60
2022-09-05T20:07:56.112Z,27.59
2022-09-05T20:10:00.914Z,27.59
2022-09-05T20:12:02.859Z,27.55
2022-09-05T20:14:18.060Z,27.50
2022-09-05T20:16:28.385Z,27.37
2022-09-05T20:18:36.561Z,27.31
2022-09-05T20:20:51.246Z,27.31
2022-09-05T20:22:57.179Z,27.26
2022-09-05T20:25:00.157Z,27.19
2022-09-05T20:27:02.309Z,27.14
2022-09-05T20:29:07.143Z,27.09
2022-09-05T20:31:13.739Z,27.01
2022-09-05T20:33:20.385Z,26.91
2022-09-05T20:37:55.882Z,26.88
2022-09-05T20:43:09.482Z,26.84
2022-09-05T20:43:31.792Z,26.76
2022-09-05T20:43:31.860Z,26.73
2022-09-05T20:45:00.508Z,26.68
2022-09-05T20:51:29.507Z,26.73
2022-09-05T20:54:05.483Z,26.67
2022-09-05T20:54:23.438Z,26.66
2022-09-05T20:54:36.069Z,26.67
2022-09-05T20:56:43.086Z,26.62
2022-09-05T20:58:47.905Z,26.64
2022-09-05T21:01:15.417Z,26.62
2022-09-05T21:03:15.831Z,26.60
2022-09-05T21:05:28.611Z,26.55
2022-09-05T21:07:31.786Z,26.46
2022-09-05T21:09:35.143Z,26.43
2022-09-05T21:11:36.897Z,26.40
2022-09-05T21:13:51.906Z,26.42
2022-09-05T21:15:54.444Z,26.41
2022-09-05T21:18:02.198Z,26.43
2022-09-05T21:20:05.909Z,26.39
2022-09-05T21:22:09.876Z,26.34
2022-09-05T21:24:17.817Z,26.40
2022-09-05T21:26:24.657Z,26.35
2022-09-05T21:28:36.303Z,26.26
2022-09-05T21:30:44.278Z,26.17
2022-09-05T21:32:45.915Z,26.18
2022-09-05T21:34:49.475Z,26.16
2022-09-05T21:37:06.793Z,26.15
2022-09-05T21:39:09.322Z,26.15
2022-09-05T21:41:15.839Z,26.22
2022-09-05T21:47:03.525Z,26.19
2022-09-05T21:47:41.944Z,26.20
2022-09-05T21:48:04.161Z,26.11
2022-09-05T21:50:06.664Z,26.10
2022-09-05T21:52:08.619Z,26.10
2022-09-05T21:59:11.618Z,26.06
2022-09-05T21:59:21.755Z,26.13
2022-09-05T21:59:25.702Z,26.12
2022-09-05T22:01:39.132Z,26.15
2022-09-05T22:03:47.869Z,26.15
2022-09-05T22:05:49.581Z,26.13
2022-09-05T22:07:52.526Z,26.10
2022-09-05T22:09:54.756Z,26.02
2022-09-05T22:11:56.381Z,25.95
2022-09-05T22:13:57.933Z,25.87
2022-09-05T22:16:01.642Z,25.86
2022-09-05T22:18:17.669Z,25.87
2022-09-05T22:20:21.816Z,25.88
2022-09-05T22:22:23.664Z,25.81
2022-09-05T22:24:27.692Z,25.74
2022-09-05T22:26:32.084Z,25.69
2022-09-05T22:28:36.747Z,25.71
2022-09-05T22:30:38.740Z,25.72
2022-09-05T22:32:41.714Z,25.77
2022-09-05T22:34:43.381Z,25.74
2022-09-05T22:36:45.037Z,25.77
2022-09-05T22:38:46.711Z,25.75
2022-09-05T22:40:48.394Z,25.78
2022-09-05T22:42:55.634Z,25.77
2022-09-05T22:44:57.277Z,25.68
2022-09-05T22:46:58.852Z,25.63
2022-09-05T22:49:01.845Z,25.62
2022-09-05T22:51:04.553Z,25.65
2022-09-05T22:53:07.383Z,25.67
2022-09-05T22:55:09.564Z,25.66
2022-09-05T22:57:11.107Z,25.58
2022-09-05T22:59:12.777Z,25.49
2022-09-05T23:01:14.343Z,25.48
2022-09-05T23:03:16.237Z,25.51
2022-09-05T23:05:19.164Z,25.55
2022-09-05T23:07:20.767Z,25.51
2022-09-05T23:09:22.422Z,25.49
2022-09-05T23:11:24.060Z,25.52
2022-09-05T23:13:25.662Z,25.55
2022-09-05T23:15:27.243Z,25.53
2022-09-05T23:17:28.858Z,25.51
2022-09-05T23:19:30.445Z,25.49
2022-09-05T23:21:34.084Z,25.50
2022-09-05T23:23:39.655Z,25.48
2022-09-05T23:25:41.321Z,25.53
2022-09-05T23:27:42.876Z,25.45
2022-09-05T23:29:44.560Z,25.45
2022-09-05T23:31:46.137Z,25.50
2022-09-05T23:33:47.756Z,25.50
2022-09-05T23:35:49.319Z,25.41
2022-09-05T23:37:52.224Z,25.42
2022-09-05T23:39:54.525Z,25.42
2022-09-05T23:41:56.512Z,25.40
2022-09-05T23:43:58.072Z,25.35
2022-09-05T23:46:00.014Z,25.31
2022-09-05T23:48:02.030Z,25.31
2022-09-05T23:50:03.944Z,25.32
2022-09-05T23:52:05.640Z,25.29
2022-09-05T23:54:08.575Z,25.29
2022-09-05T23:56:10.996Z,25.31
2022-09-05T23:58:13.484Z,25.34
